createdAt,value
2023-05-21T00:00:53.965Z,2.30
2023-05-21T00:03:24.468Z,2.80
2023-05-21T00:05:53.470Z,2.67
2023-05-21T00:08:22.346Z,2.70
2023-05-21T00:10:51.174Z,2.70
2023-05-21T00:13:19.684Z,3.30
2023-05-21T00:15:48.460Z,2.97
2023-05-21T00:18:17.214Z,2.87
2023-05-21T00:20:48.103Z,3.30
2023-05-21T00:23:19.131Z,3.30
2023-05-21T00:25:48.467Z,3.00
2023-05-21T00:28:19.532Z,3.20
2023-05-21T00:30:48.481Z,3.47
2023-05-21T00:33:17.287Z,3.47
2023-05-21T00:35:47.852Z,3.30
2023-05-21T00:38:18.000Z,3.23
2023-05-21T00:40:46.545Z,3.60
2023-05-21T00:43:15.784Z,3.57
2023-05-21T00:45:46.830Z,3.70
2023-05-21T00:48:16.336Z,3.93
2023-05-21T00:50:46.928Z,4.10
2023-05-21T00:53:19.700Z,4.73
2023-05-21T00:55:49.225Z,4.73
2023-05-21T00:58:21.356Z,4.40
2023-05-21T01:00:50.471Z,4.20
2023-05-21T01:03:20.604Z,4.20
2023-05-21T01:05:53.453Z,4.13
2023-05-21T01:08:22.959Z,4.07
2023-05-21T01:10:52.305Z,3.93
2023-05-21T01:13:23.579Z,4.13
2023-05-21T01:15:53.812Z,3.83
2023-05-21T01:18:24.207Z,3.80
2023-05-21T01:20:55.330Z,4.10
2023-05-21T01:23:25.437Z,3.80
2023-05-21T01:25:53.928Z,3.70
2023-05-21T01:28:22.868Z,3.67
2023-05-21T01:30:52.450Z,3.83
2023-05-21T01:33:27.817Z,3.50
2023-05-21T01:36:04.912Z,3.93
2023-05-21T01:38:42.795Z,4.23
2023-05-21T01:41:14.416Z,4.00
2023-05-21T01:43:47.034Z,4.20
2023-05-21T01:46:19.641Z,3.93
2023-05-21T01:48:49.773Z,3.60
2023-05-21T01:51:18.870Z,4.00
2023-05-21T01:53:48.984Z,3.90
2023-05-21T01:56:17.891Z,4.00
2023-05-21T01:58:46.373Z,3.50
2023-05-21T02:01:15.170Z,3.83
2023-05-21T02:03:44.265Z,3.90
2023-05-21T02:06:12.876Z,4.33
2023-05-21T02:08:41.475Z,3.93
2023-05-21T02:11:11.617Z,3.97
2023-05-21T02:13:43.161Z,3.87
2023-05-21T02:16:12.172Z,3.73
2023-05-21T02:18:42.530Z,4.33
2023-05-21T02:21:12.094Z,4.00
2023-05-21T02:23:42.148Z,4.20
2023-05-21T02:26:12.147Z,3.90
2023-05-21T02:28:40.895Z,4.27
2023-05-21T02:31:09.742Z,4.13
2023-05-21T02:33:38.684Z,4.10
2023-05-21T02:36:13.112Z,4.40
2023-05-21T02:38:43.846Z,4.70
2023-05-21T02:41:14.215Z,4.50
2023-05-21T02:43:42.997Z,4.80
2023-05-21T02:46:12.191Z,4.50
2023-05-21T02:48:41.048Z,4.33
2023-05-21T02:51:09.532Z,4.77
2023-05-21T02:53:38.100Z,4.73
2023-05-21T02:56:08.026Z,4.40
2023-05-21T02:58:38.217Z,4.30
2023-05-21T03:01:07.096Z,4.00
2023-05-21T03:03:35.991Z,4.27
2023-05-21T03:06:04.934Z,5.20
2023-05-21T03:08:33.821Z,5.13
2023-05-21T03:11:02.708Z,5.07
2023-05-21T03:13:31.413Z,4.80
2023-05-21T03:16:01.861Z,4.77
2023-05-21T03:18:31.646Z,4.70
2023-05-21T03:21:01.710Z,4.80
2023-05-21T03:23:30.280Z,5.13
2023-05-21T03:25:58.851Z,4.87
2023-05-21T03:28:27.389Z,5.13
2023-05-21T03:30:56.379Z,5.50
2023-05-21T03:33:26.159Z,5.30
2023-05-21T03:35:55.200Z,5.63
2023-05-21T03:38:23.824Z,5.30
2023-05-21T03:40:52.380Z,5.47
2023-05-21T03:43:20.993Z,5.73
2023-05-21T03:45:49.721Z,5.77
2023-05-21T03:48:18.348Z,5.70
2023-05-21T03:50:48.737Z,5.77
2023-05-21T03:53:17.561Z,5.83
2023-05-21T03:55:46.157Z,5.63
2023-05-21T03:58:14.690Z,5.50
2023-05-21T04:00:43.548Z,5.27
2023-05-21T04:03:12.457Z,5.70
2023-05-21T04:05:41.841Z,5.60
2023-05-21T04:08:12.485Z,5.53
2023-05-21T04:10:41.063Z,5.60
2023-05-21T04:13:09.518Z,5.70
2023-05-21T04:15:38.915Z,5.77
2023-05-21T04:18:08.892Z,5.30
2023-05-21T04:20:37.861Z,5.70
2023-05-21T04:23:06.530Z,5.57
2023-05-21T04:25:37.137Z,5.60
2023-05-21T04:28:05.897Z,5.57
2023-05-21T04:30:35.718Z,5.50
2023-05-21T04:33:04.713Z,5.47
2023-05-21T04:35:33.499Z,5.50
2023-05-21T04:38:04.103Z,5.10
2023-05-21T04:40:33.242Z,5.30
2023-05-21T04:43:08.510Z,5.73
2023-05-21T04:45:37.568Z,6.43
2023-05-21T04:48:08.223Z,5.37
2023-05-21T04:50:37.049Z,5.83
2023-05-21T04:53:05.835Z,5.63
2023-05-21T04:55:36.929Z,5.50
2023-05-21T04:58:07.336Z,5.47
2023-05-21T05:00:37.771Z,5.80
2023-05-21T05:03:07.122Z,5.70
2023-05-21T05:05:35.804Z,5.33
2023-05-21T05:08:04.739Z,5.10
2023-05-21T05:10:33.448Z,5.57
2023-05-21T05:13:02.277Z,5.70
2023-05-21T05:15:32.445Z,5.00
2023-05-21T05:18:01.385Z,5.50
2023-05-21T05:20:30.258Z,5.13
2023-05-21T05:22:58.883Z,5.23
2023-05-21T05:25:28.196Z,5.10
2023-05-21T05:27:57.262Z,5.50
2023-05-21T05:30:25.799Z,5.17
2023-05-21T05:32:56.718Z,4.73
2023-05-21T05:35:25.434Z,5.20
2023-05-21T05:37:54.001Z,4.90
2023-05-21T05:40:22.552Z,5.27
2023-05-21T05:42:52.824Z,5.30
2023-05-21T05:45:21.881Z,5.20
2023-05-21T05:47:50.451Z,5.30
2023-05-21T05:50:21.513Z,5.30
2023-05-21T05:52:52.296Z,5.53
2023-05-21T05:55:22.729Z,5.17
2023-05-21T05:57:51.632Z,5.27
2023-05-21T06:00:20.615Z,5.40
2023-05-21T06:02:49.964Z,5.20
2023-05-21T06:05:20.118Z,4.90
2023-05-21T06:07:48.757Z,5.30
2023-05-21T06:10:17.346Z,4.83
2023-05-21T06:12:45.979Z,5.00
2023-05-21T06:15:15.376Z,5.00
2023-05-21T06:17:43.846Z,5.20
2023-05-21T06:20:15.886Z,5.30
2023-05-21T06:22:46.314Z,5.60
2023-05-21T06:25:15.133Z,5.17
2023-05-21T06:27:43.910Z,4.87
2023-05-21T06:30:13.270Z,5.30
2023-05-21T06:32:42.284Z,5.07
2023-05-21T06:35:11.682Z,4.80
2023-05-21T06:37:40.498Z,5.10
2023-05-21T06:40:12.958Z,5.20
2023-05-21T06:42:41.623Z,4.63
2023-05-21T06:45:11.241Z,5.30
2023-05-21T06:47:39.907Z,4.90
2023-05-21T06:50:08.847Z,5.33
2023-05-21T06:52:37.818Z,5.00
2023-05-21T06:55:07.218Z,5.20
2023-05-21T06:57:39.497Z,5.13
2023-05-21T07:00:09.743Z,5.03
2023-05-21T07:02:38.246Z,5.50
2023-05-21T07:05:07.523Z,4.93
2023-05-21T07:07:37.068Z,5.60
2023-05-21T07:10:06.517Z,5.20
2023-05-21T07:12:36.580Z,5.30
2023-05-21T07:15:05.452Z,4.90
2023-05-21T07:17:34.033Z,5.53
2023-05-21T07:20:02.580Z,5.67
2023-05-21T07:22:31.401Z,5.10
2023-05-21T07:24:59.898Z,5.03
2023-05-21T07:27:28.625Z,5.50
2023-05-21T07:29:59.244Z,5.50
2023-05-21T07:32:29.423Z,5.37
2023-05-21T07:34:58.402Z,5.70
2023-05-21T07:37:28.318Z,5.20
2023-05-21T07:39:58.601Z,5.73
2023-05-21T07:42:27.429Z,5.47
2023-05-21T07:44:57.681Z,5.37
2023-05-21T07:47:26.125Z,5.50
2023-05-21T07:49:54.908Z,5.87
2023-05-21T07:52:23.544Z,5.60
2023-05-21T07:54:52.279Z,5.67
2023-05-21T07:57:21.578Z,5.93
2023-05-21T07:59:50.346Z,5.60
2023-05-21T08:02:20.649Z,5.80
2023-05-21T08:04:49.948Z,5.73
2023-05-21T08:07:19.916Z,5.93
2023-05-21T08:09:48.604Z,5.77
2023-05-21T08:12:18.893Z,6.20
2023-05-21T08:14:47.665Z,5.53
2023-05-21T08:17:17.687Z,5.60
2023-05-21T08:19:48.005Z,5.83
2023-05-21T08:22:17.066Z,6.07
2023-05-21T08:24:46.260Z,6.07
2023-05-21T08:27:16.309Z,5.90
2023-05-21T08:29:45.222Z,6.10
2023-05-21T08:32:14.190Z,6.23
2023-05-21T08:34:43.337Z,6.17
2023-05-21T08:37:13.706Z,5.87
2023-05-21T08:39:42.580Z,6.20
2023-05-21T08:42:32.882Z,6.17
2023-05-21T08:45:08.545Z,6.43
2023-05-21T08:47:38.155Z,6.07
2023-05-21T08:50:09.602Z,6.23
2023-05-21T08:52:39.846Z,6.07
2023-05-21T08:55:10.133Z,6.57
2023-05-21T08:57:41.316Z,6.07
2023-05-21T09:00:11.760Z,6.67
2023-05-21T09:02:44.319Z,5.93
2023-05-21T09:05:16.867Z,6.30
2023-05-21T09:07:51.731Z,7.07
2023-05-21T09:10:25.549Z,6.77
2023-05-21T09:12:54.872Z,7.37
2023-05-21T09:15:24.349Z,6.80
2023-05-21T09:17:53.327Z,6.50
2023-05-21T09:20:26.989Z,6.67
2023-05-21T09:22:57.632Z,6.67
2023-05-21T09:25:29.588Z,7.20
2023-05-21T09:27:58.820Z,6.70
2023-05-21T09:30:30.606Z,7.60
2023-05-21T09:33:01.786Z,7.37
2023-05-21T09:35:31.181Z,7.20
2023-05-21T09:38:04.951Z,6.97
2023-05-21T09:40:33.791Z,7.13
2023-05-21T09:43:02.441Z,7.00
2023-05-21T09:45:31.309Z,7.80
2023-05-21T09:48:00.065Z,7.10
2023-05-21T09:50:29.320Z,7.93
2023-05-21T09:52:58.971Z,7.53
2023-05-21T09:55:31.764Z,7.80
2023-05-21T09:58:01.185Z,7.73
2023-05-21T10:00:30.689Z,7.83
2023-05-21T10:03:02.414Z,7.90
2023-05-21T10:05:32.386Z,7.40
2023-05-21T10:08:05.801Z,8.10
2023-05-21T10:10:39.932Z,7.30
2023-05-21T10:13:13.493Z,7.70
2023-05-21T10:15:45.839Z,7.13
2023-05-21T10:18:15.438Z,7.60
2023-05-21T10:20:45.275Z,7.50
2023-05-21T10:23:17.612Z,7.33
2023-05-21T10:25:49.676Z,7.93
2023-05-21T10:28:21.563Z,7.77
2023-05-21T10:30:50.721Z,8.10
2023-05-21T10:33:19.490Z,8.60
2023-05-21T10:35:49.739Z,8.50
2023-05-21T10:38:21.061Z,8.53
2023-05-21T10:40:51.544Z,8.33
2023-05-21T10:43:43.148Z,8.27
2023-05-21T10:46:32.681Z,8.90
2023-05-21T10:49:16.669Z,8.83
2023-05-21T10:51:54.118Z,9.30
2023-05-21T10:54:54.702Z,8.60
2023-05-21T10:57:54.575Z,8.63
2023-05-21T11:00:23.545Z,8.73
2023-05-21T11:02:53.505Z,8.97
2023-05-21T11:05:41.470Z,9.03
2023-05-21T11:08:23.581Z,8.57
2023-05-21T11:10:58.556Z,7.87
2023-05-21T11:13:31.362Z,7.97
2023-05-21T11:16:09.839Z,8.50
2023-05-21T11:19:01.336Z,7.70
2023-05-21T11:21:36.237Z,8.43
2023-05-21T11:24:08.912Z,9.37
2023-05-21T11:27:07.158Z,8.67
2023-05-21T11:29:45.980Z,9.10
2023-05-21T11:32:21.107Z,8.77
2023-05-21T11:34:50.566Z,8.27
2023-05-21T11:37:41.888Z,8.43
2023-05-21T11:40:27.682Z,8.17
2023-05-21T11:42:57.374Z,8.33
2023-05-21T11:45:32.702Z,8.63
2023-05-21T11:48:02.163Z,9.27
2023-05-21T11:50:33.905Z,8.90
2023-05-21T11:53:02.707Z,8.50
2023-05-21T11:55:33.255Z,8.03
2023-05-21T11:58:02.525Z,8.10
2023-05-21T12:00:34.538Z,8.30
2023-05-21T12:03:03.552Z,9.00
2023-05-21T12:05:32.425Z,9.30
2023-05-21T12:08:01.026Z,8.50
2023-05-21T12:10:29.782Z,8.40
2023-05-21T12:12:58.395Z,8.90
2023-05-21T12:15:29.330Z,8.73
2023-05-21T12:17:59.921Z,8.83
2023-05-21T12:20:29.923Z,8.43
2023-05-21T12:23:01.510Z,9.13
2023-05-21T12:25:32.145Z,8.90
2023-05-21T12:28:02.399Z,8.27
2023-05-21T12:30:32.123Z,8.73
2023-05-21T12:33:04.862Z,8.50
2023-05-21T12:35:34.029Z,8.40
2023-05-21T12:38:04.593Z,8.67
2023-05-21T12:40:39.279Z,8.70
2023-05-21T12:43:09.951Z,8.70
2023-05-21T12:45:41.143Z,8.30
2023-05-21T12:48:12.672Z,8.67
2023-05-21T12:50:43.029Z,8.30
2023-05-21T12:53:13.366Z,8.33
2023-05-21T12:55:42.244Z,7.97
2023-05-21T12:58:15.904Z,8.40
2023-05-21T13:00:45.965Z,8.13
2023-05-21T13:03:16.894Z,8.57
2023-05-21T13:05:46.986Z,8.17
2023-05-21T13:08:17.118Z,7.88
2023-05-21T13:10:45.963Z,8.02
2023-05-21T13:13:14.605Z,8.00
2023-05-21T13:15:43.297Z,9.00
2023-05-21T13:18:12.762Z,8.70
2023-05-21T13:20:43.316Z,8.43
2023-05-21T13:23:12.058Z,8.23
2023-05-21T13:25:41.050Z,7.60
2023-05-21T13:28:10.951Z,8.80
2023-05-21T13:30:39.684Z,7.32
2023-05-21T13:33:08.494Z,7.85
2023-05-21T13:35:38.097Z,7.25
2023-05-21T13:38:08.348Z,8.43
2023-05-21T13:40:39.047Z,7.80
2023-05-21T13:43:08.239Z,7.57
2023-05-21T13:45:36.779Z,8.00
2023-05-21T13:48:05.601Z,8.10
2023-05-21T13:50:34.514Z,8.13
2023-05-21T13:53:03.361Z,7.57
2023-05-21T13:55:33.576Z,8.82
2023-05-21T13:58:02.219Z,8.52
2023-05-21T14:00:30.844Z,8.50
2023-05-21T14:02:59.931Z,8.30
2023-05-21T14:05:28.647Z,9.13
2023-05-21T14:07:57.209Z,8.93
2023-05-21T14:10:26.219Z,8.77
2023-05-21T14:13:04.330Z,8.48
2023-05-21T14:15:40.660Z,8.40
2023-05-21T14:18:12.311Z,8.43
2023-05-21T14:20:41.135Z,9.03
2023-05-21T14:23:10.494Z,7.63
2023-05-21T14:25:39.261Z,8.03
2023-05-21T14:28:09.433Z,8.27
2023-05-21T14:30:38.326Z,9.10
2023-05-21T14:33:06.959Z,8.85
2023-05-21T14:35:36.059Z,9.53
2023-05-21T14:38:04.824Z,8.87
2023-05-21T14:40:35.725Z,8.30
2023-05-21T14:43:11.501Z,8.23
2023-05-21T14:45:40.501Z,9.20
2023-05-21T14:48:09.994Z,8.60
2023-05-21T14:50:39.147Z,8.80
2023-05-21T14:53:08.198Z,8.40
2023-05-21T14:55:37.954Z,8.90
2023-05-21T14:58:08.489Z,8.73
2023-05-21T15:00:38.119Z,8.13
2023-05-21T15:03:07.141Z,8.63
2023-05-21T15:05:36.604Z,9.33
2023-05-21T15:08:06.497Z,8.77
2023-05-21T15:10:35.283Z,8.43
2023-05-21T15:13:04.303Z,8.90
2023-05-21T15:15:34.580Z,9.53
2023-05-21T15:18:03.290Z,8.50
2023-05-21T15:20:32.400Z,8.40
2023-05-21T15:23:15.370Z,9.37
2023-05-21T15:25:45.216Z,9.07
2023-05-21T15:28:14.564Z,8.70
2023-05-21T15:30:44.606Z,9.10
2023-05-21T15:33:13.920Z,9.50
2023-05-21T15:35:43.193Z,9.57
2023-05-21T15:38:13.081Z,8.40
2023-05-21T15:40:43.180Z,9.43
2023-05-21T15:43:11.911Z,9.57
2023-05-21T15:45:40.518Z,9.33
2023-05-21T15:48:14.316Z,8.80
2023-05-21T15:50:43.434Z,9.03
2023-05-21T15:53:12.969Z,8.90
2023-05-21T15:55:42.046Z,9.30
2023-05-21T15:58:10.568Z,8.63
2023-05-21T16:00:39.471Z,9.37
2023-05-21T16:03:09.820Z,9.57
2023-05-21T16:05:39.021Z,9.47
2023-05-21T16:08:10.843Z,9.97
2023-05-21T16:10:40.119Z,8.80
2023-05-21T16:13:09.206Z,9.00
2023-05-21T16:15:39.333Z,9.27
2023-05-21T16:18:10.056Z,9.30
2023-05-21T16:20:39.222Z,9.07
2023-05-21T16:23:07.847Z,8.73
2023-05-21T16:25:37.045Z,9.07
2023-05-21T16:28:06.807Z,8.53
2023-05-21T16:30:35.851Z,9.57
2023-05-21T16:33:04.827Z,9.07
2023-05-21T16:35:35.622Z,9.73
2023-05-21T16:38:04.397Z,9.13
2023-05-21T16:40:35.741Z,9.53
2023-05-21T16:43:04.668Z,9.30
2023-05-21T16:45:40.403Z,9.23
2023-05-21T16:48:12.178Z,9.07
2023-05-21T16:50:42.421Z,9.50
2023-05-21T16:53:14.721Z,8.80
2023-05-21T16:55:43.603Z,8.90
2023-05-21T16:58:14.088Z,8.80
2023-05-21T17:00:42.927Z,9.10
2023-05-21T17:03:12.302Z,9.07
2023-05-21T17:05:42.766Z,9.37
2023-05-21T17:08:11.388Z,9.17
2023-05-21T17:10:40.041Z,9.83
2023-05-21T17:13:20.706Z,8.90
2023-05-21T17:15:49.675Z,8.80
2023-05-21T17:18:18.499Z,8.53
2023-05-21T17:20:49.220Z,8.40
2023-05-21T17:23:17.926Z,8.57
2023-05-21T17:25:48.280Z,8.57
2023-05-21T17:28:16.743Z,9.13
2023-05-21T17:30:46.807Z,9.03
2023-05-21T17:33:17.002Z,8.93
2023-05-21T17:35:46.526Z,7.83
2023-05-21T17:38:16.539Z,8.50
2023-05-21T17:40:45.413Z,8.33
2023-05-21T17:43:14.002Z,8.60
2023-05-21T17:45:42.574Z,7.90
2023-05-21T17:48:12.416Z,7.97
2023-05-21T17:50:41.544Z,7.47
2023-05-21T17:53:10.058Z,6.50
2023-05-21T17:55:41.356Z,6.77
2023-05-21T17:58:10.952Z,6.60
2023-05-21T18:00:39.623Z,6.23
2023-05-21T18:03:08.725Z,6.20
2023-05-21T18:05:38.144Z,5.83
2023-05-21T18:08:07.461Z,6.07
2023-05-21T18:10:36.130Z,6.17
2023-05-21T18:13:06.144Z,5.77
2023-05-21T18:15:35.542Z,6.50
2023-05-21T18:18:04.834Z,5.70
2023-05-21T18:20:34.169Z,6.50
2023-05-21T18:23:03.016Z,5.90
2023-05-21T18:25:31.697Z,6.00
2023-05-21T18:28:04.535Z,5.47
2023-05-21T18:30:34.822Z,5.70
2023-05-21T18:33:04.083Z,5.90
2023-05-21T18:35:32.548Z,5.97
2023-05-21T18:38:01.850Z,5.67
2023-05-21T18:40:30.799Z,6.10
2023-05-21T18:43:01.015Z,5.73
2023-05-21T18:45:30.058Z,5.90
2023-05-21T18:48:01.184Z,5.53
2023-05-21T18:50:31.932Z,5.13
2023-05-21T18:53:00.466Z,6.00
2023-05-21T18:55:29.312Z,6.00
2023-05-21T18:57:57.879Z,5.90
2023-05-21T19:00:26.715Z,5.97
2023-05-21T19:02:55.542Z,5.73
2023-05-21T19:05:26.184Z,5.80
2023-05-21T19:07:57.893Z,5.77
2023-05-21T19:10:27.794Z,5.47
2023-05-21T19:12:57.449Z,5.60
2023-05-21T19:15:26.249Z,5.80
2023-05-21T19:17:55.178Z,5.60
2023-05-21T19:20:27.110Z,5.80
2023-05-21T19:22:56.405Z,5.70
2023-05-21T19:25:25.589Z,4.97
2023-05-21T19:27:54.162Z,5.20
2023-05-21T19:30:23.316Z,5.43
2023-05-21T19:32:52.044Z,5.63
2023-05-21T19:35:22.999Z,5.93
2023-05-21T19:37:54.601Z,5.50
2023-05-21T19:40:23.499Z,5.60
2023-05-21T19:42:52.458Z,5.80
2023-05-21T19:45:21.803Z,5.60
2023-05-21T19:47:51.631Z,5.40
2023-05-21T19:50:20.672Z,5.27
2023-05-21T19:52:49.487Z,6.03
2023-05-21T19:55:20.591Z,5.37
2023-05-21T19:57:49.433Z,5.70
2023-05-21T20:00:19.152Z,5.87
2023-05-21T20:02:47.979Z,6.20
2023-05-21T20:05:17.372Z,5.10
2023-05-21T20:07:46.224Z,5.50
2023-05-21T20:10:14.732Z,5.40
2023-05-21T20:12:45.019Z,5.60
2023-05-21T20:15:15.019Z,5.20
2023-05-21T20:17:44.228Z,5.90
2023-05-21T20:20:13.868Z,5.40
2023-05-21T20:22:42.674Z,6.00
2023-05-21T20:25:11.783Z,5.60
2023-05-21T20:27:40.771Z,4.87
2023-05-21T20:30:17.141Z,6.17
2023-05-21T20:32:46.116Z,5.83
2023-05-21T20:35:14.851Z,6.67
2023-05-21T20:37:43.743Z,6.20
2023-05-21T20:40:14.899Z,5.90
2023-05-21T20:42:45.157Z,5.77
2023-05-21T20:45:16.099Z,6.20
2023-05-21T20:47:45.593Z,6.10
2023-05-21T20:50:14.169Z,5.87
2023-05-21T20:52:45.457Z,5.80
2023-05-21T20:55:15.221Z,6.00
2023-05-21T20:57:43.858Z,5.20
2023-05-21T21:00:16.310Z,6.47
2023-05-21T21:02:45.233Z,6.03
2023-05-21T21:05:14.103Z,6.23
2023-05-21T21:07:43.516Z,6.43
2023-05-21T21:10:12.614Z,6.43
2023-05-21T21:12:41.404Z,6.90
2023-05-21T21:15:11.327Z,6.50
2023-05-21T21:17:41.531Z,6.07
2023-05-21T21:20:12.869Z,6.43
2023-05-21T21:22:41.601Z,6.80
2023-05-21T21:25:11.694Z,7.03
2023-05-21T21:27:40.469Z,7.10
2023-05-21T21:30:10.238Z,6.50
2023-05-21T21:32:39.119Z,6.60
2023-05-21T21:35:11.095Z,7.10
2023-05-21T21:37:40.409Z,7.37
2023-05-21T21:40:10.262Z,6.73
2023-05-21T21:42:38.939Z,7.17
2023-05-21T21:45:09.168Z,6.40
2023-05-21T21:47:40.540Z,6.43
2023-05-21T21:50:12.186Z,6.57
2023-05-21T21:52:41.315Z,7.20
2023-05-21T21:55:11.200Z,7.00
2023-05-21T21:57:41.301Z,6.83
2023-05-21T22:00:15.900Z,7.03
2023-05-21T22:02:46.692Z,7.10
2023-05-21T22:05:17.066Z,6.90
2023-05-21T22:07:47.682Z,7.90
2023-05-21T22:10:16.768Z,7.03
2023-05-21T22:12:46.422Z,7.67
2023-05-21T22:15:20.622Z,7.57
2023-05-21T22:17:50.338Z,7.70
2023-05-21T22:20:22.462Z,7.57
2023-05-21T22:22:52.503Z,7.50
2023-05-21T22:25:22.654Z,7.73
2023-05-21T22:27:51.385Z,7.67
2023-05-21T22:30:20.408Z,7.70
2023-05-21T22:32:49.533Z,8.17
2023-05-21T22:35:20.554Z,7.97
2023-05-21T22:37:49.752Z,7.50
2023-05-21T22:40:20.445Z,8.50
2023-05-21T22:42:49.333Z,8.20
2023-05-21T22:45:19.257Z,8.10
2023-05-21T22:47:48.389Z,8.13
2023-05-21T22:50:18.238Z,8.00
2023-05-21T22:52:48.403Z,7.83
2023-05-21T22:55:17.598Z,7.93
2023-05-21T22:57:46.760Z,7.07
2023-05-21T23:00:19.512Z,7.33
2023-05-21T23:02:48.423Z,7.63
2023-05-21T23:05:17.661Z,7.73
2023-05-21T23:07:47.569Z,7.70
2023-05-21T23:10:16.267Z,8.00
2023-05-21T23:12:44.942Z,6.83
2023-05-21T23:15:13.610Z,8.00
2023-05-21T23:17:42.338Z,7.20
2023-05-21T23:20:11.909Z,7.63
2023-05-21T23:22:40.662Z,7.77
2023-05-21T23:25:12.880Z,7.30
2023-05-21T23:27:41.786Z,7.47
2023-05-21T23:30:11.840Z,7.40
2023-05-21T23:32:40.743Z,7.03
2023-05-21T23:35:11.106Z,7.17
2023-05-21T23:37:39.671Z,7.83
2023-05-21T23:40:12.199Z,8.37
2023-05-21T23:42:40.809Z,7.00
2023-05-21T23:45:09.983Z,7.40
2023-05-21T23:47:38.470Z,7.43
2023-05-21T23:50:08.487Z,7.53
2023-05-21T23:52:37.202Z,8.20
2023-05-21T23:55:06.352Z,7.30
2023-05-21T23:57:36.548Z,7.77
